createdAt,value
2024-05-09T00:00:45.071Z,0.40
2024-05-09T00:03:32.924Z,0.30
2024-05-09T00:06:00.998Z,0.30
2024-05-09T00:08:29.006Z,0.30
2024-05-09T00:10:57.044Z,0.30
2024-05-09T00:13:24.790Z,0.30
2024-05-09T00:15:52.524Z,0.30
2024-05-09T00:18:20.359Z,0.30
2024-05-09T00:20:48.449Z,0.20
2024-05-09T00:23:16.234Z,0.30
2024-05-09T00:25:44.658Z,0.30
2024-05-09T00:28:13.452Z,0.30
2024-05-09T00:30:41.315Z,0.40
2024-05-09T00:33:10.554Z,0.30
2024-05-09T00:35:39.786Z,0.30
2024-05-09T00:38:08.145Z,0.40
2024-05-09T00:40:42.082Z,0.30
2024-05-09T00:43:12.848Z,0.60
2024-05-09T00:45:42.170Z,0.30
2024-05-09T00:48:14.324Z,0.40
2024-05-09T00:50:48.213Z,0.40
2024-05-09T00:53:18.275Z,0.40
2024-05-09T00:55:47.501Z,0.40
2024-05-09T00:58:18.161Z,0.30
2024-05-09T01:00:46.454Z,0.40
2024-05-09T01:03:14.691Z,0.30
2024-05-09T01:05:44.275Z,0.30
2024-05-09T01:08:13.079Z,0.30
2024-05-09T01:10:44.195Z,0.30
2024-05-09T01:13:14.124Z,0.20
2024-05-09T01:15:42.631Z,0.30
2024-05-09T01:18:12.536Z,0.50
2024-05-09T01:20:44.233Z,0.30
2024-05-09T01:23:15.350Z,0.30
2024-05-09T01:25:46.072Z,0.40
2024-05-09T01:28:14.947Z,0.80
2024-05-09T01:30:42.677Z,0.60
2024-05-09T01:33:12.308Z,0.30
2024-05-09T01:35:42.214Z,0.30
2024-05-09T01:38:17.102Z,0.30
2024-05-09T01:40:46.386Z,0.30
2024-05-09T01:43:14.510Z,0.30
2024-05-09T01:45:42.933Z,0.30
2024-05-09T01:48:11.445Z,0.40
2024-05-09T01:50:42.236Z,0.40
2024-05-09T01:53:13.531Z,0.30
2024-05-09T01:55:42.397Z,0.30
2024-05-09T01:58:10.478Z,0.30
2024-05-09T02:00:42.213Z,0.30
2024-05-09T02:03:15.744Z,0.30
2024-05-09T02:05:47.720Z,0.30
2024-05-09T02:08:19.190Z,0.30
2024-05-09T02:10:49.490Z,0.20
2024-05-09T02:13:18.315Z,0.40
2024-05-09T02:15:46.136Z,0.30
2024-05-09T02:18:14.392Z,0.40
2024-05-09T02:20:43.136Z,0.30
2024-05-09T02:23:12.127Z,0.20
2024-05-09T02:25:41.520Z,0.40
2024-05-09T02:28:09.359Z,0.20
2024-05-09T02:30:40.702Z,0.40
2024-05-09T02:33:12.402Z,0.40
2024-05-09T02:35:43.740Z,0.30
2024-05-09T02:38:12.504Z,0.40
2024-05-09T02:40:40.806Z,0.40
2024-05-09T02:43:10.701Z,0.30
2024-05-09T02:45:40.067Z,0.60
2024-05-09T02:48:13.200Z,0.30
2024-05-09T02:50:44.256Z,0.30
2024-05-09T02:53:13.129Z,0.40
2024-05-09T02:55:42.564Z,0.50
2024-05-09T02:58:11.013Z,0.30
2024-05-09T03:00:41.607Z,0.60
2024-05-09T03:03:13.490Z,0.40
2024-05-09T03:05:44.772Z,0.30
2024-05-09T03:08:13.300Z,0.40
2024-05-09T03:10:41.288Z,0.70
2024-05-09T03:13:12.651Z,0.40
2024-05-09T03:15:41.836Z,0.40
2024-05-09T03:18:12.335Z,0.60
2024-05-09T03:20:40.895Z,0.40
2024-05-09T03:23:09.895Z,0.50
2024-05-09T03:25:38.980Z,0.50
2024-05-09T03:28:07.193Z,0.30
2024-05-09T03:30:40.401Z,0.60
2024-05-09T03:33:12.184Z,0.50
2024-05-09T03:35:41.305Z,0.50
2024-05-09T03:38:09.241Z,0.40
2024-05-09T03:40:37.241Z,0.40
2024-05-09T03:43:04.924Z,0.50
2024-05-09T03:45:32.556Z,0.50
2024-05-09T03:48:00.408Z,0.50
2024-05-09T03:50:33.842Z,0.90
2024-05-09T03:53:03.849Z,0.70
2024-05-09T03:55:31.740Z,0.70
2024-05-09T03:57:59.798Z,0.70
2024-05-09T04:00:35.543Z,0.60
2024-05-09T04:03:08.794Z,1.20
2024-05-09T04:05:40.594Z,0.50
2024-05-09T04:08:10.100Z,1.00
2024-05-09T04:10:38.255Z,0.80
2024-05-09T04:13:05.970Z,0.70
2024-05-09T04:15:33.694Z,0.60
2024-05-09T04:18:02.183Z,0.80
2024-05-09T04:20:37.799Z,0.50
2024-05-09T04:23:11.905Z,0.50
2024-05-09T04:25:45.125Z,0.90
2024-05-09T04:28:13.917Z,0.40
2024-05-09T04:30:42.503Z,0.80
2024-05-09T04:33:13.409Z,0.50
2024-05-09T04:35:43.485Z,0.50
2024-05-09T04:38:13.808Z,0.60
2024-05-09T04:40:42.307Z,0.60
2024-05-09T04:43:19.306Z,0.90
2024-05-09T04:45:47.707Z,0.80
2024-05-09T04:48:16.692Z,0.90
2024-05-09T04:50:44.885Z,0.90
2024-05-09T04:53:16.113Z,0.70
2024-05-09T04:55:44.567Z,0.60
2024-05-09T04:58:12.540Z,0.60
2024-05-09T05:00:41.417Z,1.40
2024-05-09T05:03:13.797Z,0.70
2024-05-09T05:05:45.957Z,0.80
2024-05-09T05:08:19.001Z,0.60
2024-05-09T05:10:48.650Z,0.70
2024-05-09T05:13:20.382Z,0.90
2024-05-09T05:15:51.550Z,0.90
2024-05-09T05:18:19.852Z,1.30
2024-05-09T05:20:48.260Z,0.50
2024-05-09T05:23:20.244Z,0.80
2024-05-09T05:25:49.585Z,1.20
2024-05-09T05:28:18.043Z,0.60
2024-05-09T05:30:46.895Z,0.60
2024-05-09T05:33:15.885Z,0.40
2024-05-09T05:35:44.238Z,0.30
2024-05-09T05:38:12.270Z,0.30
2024-05-09T05:40:40.913Z,0.30
2024-05-09T05:43:15.825Z,0.30
2024-05-09T05:45:45.220Z,0.30
2024-05-09T05:48:16.551Z,0.30
2024-05-09T05:50:44.975Z,0.40
2024-05-09T05:53:13.263Z,0.30
2024-05-09T05:55:42.169Z,0.20
2024-05-09T05:58:11.030Z,0.30
2024-05-09T06:00:41.088Z,0.30
2024-05-09T06:03:10.783Z,0.30
2024-05-09T06:05:46.590Z,0.30
2024-05-09T06:08:14.668Z,0.30
2024-05-09T06:10:42.786Z,0.40
2024-05-09T06:13:13.110Z,0.30
2024-05-09T06:15:42.021Z,0.20
2024-05-09T06:18:11.278Z,0.40
2024-05-09T06:20:43.123Z,0.30
2024-05-09T06:23:12.772Z,0.40
2024-05-09T06:25:42.024Z,0.60
2024-05-09T06:28:12.414Z,0.30
2024-05-09T06:30:42.327Z,23.60
2024-05-09T06:33:14.125Z,15.50
2024-05-09T06:35:44.665Z,2.20
2024-05-09T06:38:13.430Z,0.50
2024-05-09T06:40:43.658Z,0.40
2024-05-09T06:43:17.632Z,0.30
2024-05-09T06:45:48.550Z,0.40
2024-05-09T06:48:21.741Z,0.40
2024-05-09T06:50:50.585Z,0.30
2024-05-09T06:53:23.146Z,0.30
2024-05-09T06:55:50.892Z,0.30
2024-05-09T06:58:18.696Z,0.40
2024-05-09T07:00:46.900Z,0.30
2024-05-09T07:03:17.111Z,0.30
2024-05-09T07:05:48.326Z,5.10
2024-05-09T07:08:17.948Z,1.10
2024-05-09T07:10:46.243Z,0.30
2024-05-09T07:13:15.250Z,0.40
2024-05-09T07:15:43.639Z,0.80
2024-05-09T07:18:12.581Z,0.60
2024-05-09T07:20:40.945Z,0.30
2024-05-09T07:23:10.462Z,0.30
2024-05-09T07:25:40.594Z,0.30
2024-05-09T07:28:18.622Z,0.30
2024-05-09T07:30:46.906Z,0.50
2024-05-09T07:33:20.027Z,0.70
2024-05-09T07:35:49.493Z,0.40
2024-05-09T07:38:17.323Z,0.30
2024-05-09T07:40:45.172Z,0.20
2024-05-09T07:43:13.902Z,0.30
2024-05-09T07:45:50.820Z,0.30
2024-05-09T07:52:38.435Z,0.30
2024-05-09T07:53:47.142Z,0.40
2024-05-09T07:56:19.832Z,0.40
2024-05-09T07:58:50.699Z,0.40
2024-05-09T08:01:19.484Z,0.30
2024-05-09T08:03:50.497Z,0.30
2024-05-09T08:06:18.758Z,0.40
2024-05-09T08:08:47.636Z,0.30
2024-05-09T08:11:15.880Z,0.30
2024-05-09T08:13:43.613Z,0.40
2024-05-09T08:16:14.406Z,0.40
2024-05-09T08:18:42.596Z,0.40
2024-05-09T08:21:10.605Z,0.30
2024-05-09T08:23:38.553Z,0.30
2024-05-09T08:26:06.308Z,0.30
2024-05-09T08:28:34.083Z,0.60
2024-05-09T08:31:05.168Z,0.30
2024-05-09T08:33:35.028Z,0.40
2024-05-09T08:36:03.236Z,0.30
2024-05-09T08:38:31.500Z,0.50
2024-05-09T08:41:03.871Z,0.60
2024-05-09T08:43:31.702Z,0.30
2024-05-09T08:46:00.190Z,0.40
2024-05-09T08:48:29.689Z,0.70
2024-05-09T08:50:59.340Z,0.50
2024-05-09T08:53:27.303Z,0.30
2024-05-09T08:55:59.926Z,0.50
2024-05-09T08:58:30.304Z,0.40
2024-05-09T09:01:00.234Z,0.30
2024-05-09T09:03:32.821Z,0.60
2024-05-09T09:06:07.205Z,0.40
2024-05-09T09:08:38.639Z,0.40
2024-05-09T09:11:07.076Z,0.60
2024-05-09T09:13:34.927Z,0.40
2024-05-09T09:16:03.527Z,0.40
2024-05-09T09:18:32.769Z,0.40
2024-05-09T09:21:02.945Z,0.50
2024-05-09T09:23:31.031Z,0.40
2024-05-09T09:26:00.034Z,0.40
2024-05-09T09:28:28.116Z,0.40
2024-05-09T09:31:03.394Z,0.40
2024-05-09T09:33:32.063Z,0.50
2024-05-09T09:36:02.922Z,0.60
2024-05-09T09:38:32.564Z,0.40
2024-05-09T09:41:05.829Z,0.30
2024-05-09T09:43:34.041Z,0.50
2024-05-09T09:46:02.579Z,0.40
2024-05-09T09:48:32.395Z,0.60
2024-05-09T09:51:00.790Z,0.50
2024-05-09T09:53:29.250Z,0.30
2024-05-09T09:55:59.012Z,0.50
2024-05-09T09:58:29.033Z,0.30
2024-05-09T10:00:57.073Z,0.40
2024-05-09T10:03:25.115Z,0.50
2024-05-09T10:05:54.888Z,0.40
2024-05-09T10:08:23.663Z,0.40
2024-05-09T10:10:51.688Z,0.40
2024-05-09T10:13:19.950Z,0.50
2024-05-09T10:15:53.060Z,0.30
2024-05-09T10:18:27.039Z,0.50
2024-05-09T10:20:57.765Z,0.50
2024-05-09T10:23:27.777Z,0.80
2024-05-09T10:26:00.522Z,0.60
2024-05-09T10:28:32.915Z,0.50
2024-05-09T10:31:07.345Z,0.50
2024-05-09T10:33:56.272Z,0.40
2024-05-09T10:36:28.933Z,0.50
2024-05-09T10:38:56.660Z,0.50
2024-05-09T10:41:24.480Z,0.60
2024-05-09T10:43:52.387Z,0.30
2024-05-09T10:46:20.699Z,0.60
2024-05-09T10:48:50.597Z,0.30
2024-05-09T10:51:21.479Z,0.50
2024-05-09T10:53:49.311Z,0.50
2024-05-09T10:56:17.528Z,0.70
2024-05-09T10:58:45.442Z,0.60
2024-05-09T11:01:13.989Z,0.40
2024-05-09T11:03:46.986Z,0.40
2024-05-09T11:06:16.245Z,0.50
2024-05-09T11:08:45.889Z,0.60
2024-05-09T11:11:14.054Z,0.50
2024-05-09T11:13:42.137Z,0.50
2024-05-09T11:16:19.860Z,0.40
2024-05-09T11:18:58.226Z,0.40
2024-05-09T11:21:26.677Z,0.40
2024-05-09T11:23:54.812Z,0.50
2024-05-09T11:26:25.562Z,0.40
2024-05-09T11:28:53.626Z,0.60
2024-05-09T11:31:21.862Z,0.40
2024-05-09T11:33:50.128Z,0.50
2024-05-09T11:36:17.989Z,0.40
2024-05-09T11:38:45.781Z,0.60
2024-05-09T11:41:18.267Z,0.60
2024-05-09T11:43:46.012Z,0.60
2024-05-09T11:46:14.077Z,0.40
2024-05-09T11:48:42.153Z,0.60
2024-05-09T11:51:10.191Z,0.60
2024-05-09T11:53:37.849Z,0.60
2024-05-09T11:56:05.926Z,0.60
2024-05-09T11:58:34.874Z,0.50
2024-05-09T12:01:02.868Z,0.40
2024-05-09T12:03:31.205Z,0.50
2024-05-09T12:05:59.364Z,0.50
2024-05-09T12:08:27.446Z,0.40
2024-05-09T12:10:55.435Z,0.50
2024-05-09T12:13:23.716Z,0.70
2024-05-09T12:15:51.776Z,0.30
2024-05-09T12:18:19.695Z,0.60
2024-05-09T12:20:47.506Z,0.50
2024-05-09T12:23:15.205Z,0.40
2024-05-09T12:25:43.295Z,0.40
2024-05-09T12:28:11.094Z,0.40
2024-05-09T12:30:40.657Z,0.40
2024-05-09T12:33:12.079Z,0.60
2024-05-09T12:35:44.120Z,0.50
2024-05-09T12:38:18.115Z,0.70
2024-05-09T12:40:45.816Z,0.50
2024-05-09T12:43:13.727Z,0.50
2024-05-09T12:45:41.459Z,0.40
2024-05-09T12:48:13.062Z,0.60
2024-05-09T12:50:41.892Z,0.40
2024-05-09T12:53:10.133Z,0.50
2024-05-09T12:55:44.922Z,0.80
2024-05-09T12:58:24.435Z,0.60
2024-05-09T13:00:52.734Z,0.50
2024-05-09T13:03:21.778Z,0.50
2024-05-09T13:05:50.816Z,0.40
2024-05-09T13:08:19.491Z,0.40
2024-05-09T13:10:47.630Z,0.40
2024-05-09T13:13:15.667Z,0.50
2024-05-09T13:15:43.478Z,0.40
2024-05-09T13:18:11.537Z,0.50
2024-05-09T13:20:39.286Z,0.60
2024-05-09T13:23:08.346Z,0.50
2024-05-09T13:25:38.035Z,0.50
2024-05-09T13:28:07.639Z,0.50
2024-05-09T13:30:40.434Z,0.40
2024-05-09T13:33:12.042Z,0.40
2024-05-09T13:35:46.657Z,0.50
2024-05-09T13:38:18.490Z,0.60
2024-05-09T13:40:47.630Z,0.70
2024-05-09T13:43:15.927Z,0.40
2024-05-09T13:45:44.112Z,0.70
2024-05-09T13:48:12.715Z,0.50
2024-05-09T13:50:41.116Z,1.20
2024-05-09T13:53:09.303Z,0.40
2024-05-09T13:55:38.901Z,0.50
2024-05-09T13:58:08.329Z,0.40
2024-05-09T14:00:45.146Z,0.40
2024-05-09T14:03:19.675Z,0.50
2024-05-09T14:05:51.093Z,0.60
2024-05-09T14:08:21.655Z,0.50
2024-05-09T14:10:50.099Z,0.80
2024-05-09T14:13:18.531Z,0.70
2024-05-09T14:15:46.728Z,0.50
2024-05-09T14:18:15.158Z,0.50
2024-05-09T14:20:43.534Z,1.10
2024-05-09T14:23:11.404Z,0.50
2024-05-09T14:25:42.139Z,0.40
2024-05-09T14:28:12.960Z,0.70
2024-05-09T14:30:42.206Z,0.40
2024-05-09T14:33:11.411Z,0.60
2024-05-09T14:35:39.770Z,0.50
2024-05-09T14:38:09.039Z,0.40
2024-05-09T14:40:42.182Z,0.60
2024-05-09T14:43:13.824Z,0.60
2024-05-09T14:45:43.393Z,0.50
2024-05-09T14:48:14.781Z,0.60
2024-05-09T14:50:43.531Z,0.50
2024-05-09T14:53:14.108Z,1.00
2024-05-09T14:55:43.412Z,0.50
2024-05-09T14:58:12.804Z,0.60
2024-05-09T15:00:46.456Z,0.60
2024-05-09T15:03:19.813Z,0.70
2024-05-09T15:05:49.251Z,0.50
2024-05-09T15:08:18.739Z,0.50
2024-05-09T15:10:49.582Z,0.40
2024-05-09T15:13:19.465Z,0.40
2024-05-09T15:15:48.136Z,0.40
2024-05-09T15:18:16.914Z,0.50
2024-05-09T15:20:45.449Z,0.40
2024-05-09T15:23:13.745Z,0.30
2024-05-09T15:25:41.625Z,0.40
2024-05-09T15:28:09.860Z,0.40
2024-05-09T15:30:37.993Z,0.40
2024-05-09T15:33:07.409Z,0.40
2024-05-09T15:35:36.337Z,0.40
2024-05-09T15:38:04.957Z,0.80
2024-05-09T15:40:39.398Z,0.40
2024-05-09T15:43:10.171Z,0.70
2024-05-09T15:45:40.856Z,0.50
2024-05-09T15:48:10.550Z,0.40
2024-05-09T15:50:41.420Z,0.40
2024-05-09T15:53:12.553Z,0.70
2024-05-09T15:55:42.484Z,0.40
2024-05-09T15:58:11.668Z,0.40
2024-05-09T16:00:42.626Z,0.40
2024-05-09T16:03:14.053Z,0.60
2024-05-09T16:05:46.144Z,0.40
2024-05-09T16:08:14.850Z,0.40
2024-05-09T16:10:45.804Z,0.50
2024-05-09T16:13:15.933Z,0.40
2024-05-09T16:15:44.467Z,0.40
2024-05-09T16:18:12.803Z,0.30
2024-05-09T16:20:42.569Z,0.50
2024-05-09T16:23:12.688Z,0.40
2024-05-09T16:25:45.213Z,0.40
2024-05-09T16:28:13.579Z,0.40
2024-05-09T16:30:41.832Z,0.30
2024-05-09T16:33:12.828Z,0.50
2024-05-09T16:35:40.886Z,0.30
2024-05-09T16:38:08.863Z,0.40
2024-05-09T16:40:40.361Z,0.50
2024-05-09T16:43:11.335Z,0.40
2024-05-09T16:45:41.258Z,0.30
2024-05-09T16:48:09.369Z,0.30
2024-05-09T16:50:38.013Z,0.40
2024-05-09T16:53:06.561Z,0.50
2024-05-09T16:55:36.130Z,0.60
2024-05-09T16:58:06.496Z,0.60
2024-05-09T17:00:40.787Z,0.40
2024-05-09T17:03:15.539Z,0.40
2024-05-09T17:05:48.314Z,0.40
2024-05-09T17:08:20.062Z,0.70
2024-05-09T17:10:48.967Z,0.60
2024-05-09T17:13:18.141Z,0.40
2024-05-09T17:15:46.796Z,0.40
2024-05-09T17:18:15.681Z,0.40
2024-05-09T17:20:43.470Z,0.40
2024-05-09T17:23:14.424Z,0.40
2024-05-09T17:25:43.476Z,0.30
2024-05-09T17:28:12.009Z,0.50
2024-05-09T17:30:41.807Z,0.60
2024-05-09T17:33:12.186Z,0.40
2024-05-09T17:35:41.467Z,7.90
2024-05-09T17:38:09.353Z,6.40
2024-05-09T17:40:38.652Z,4.40
2024-05-09T17:43:09.391Z,1.10
2024-05-09T17:45:40.368Z,0.60
2024-05-09T17:48:11.947Z,0.40
2024-05-09T17:50:41.683Z,0.30
2024-05-09T17:53:10.725Z,0.30
2024-05-09T17:55:39.709Z,0.50
2024-05-09T17:58:07.956Z,0.40
2024-05-09T18:00:39.712Z,0.40
2024-05-09T18:03:14.358Z,0.40
2024-05-09T18:05:44.770Z,0.40
2024-05-09T18:08:13.908Z,0.30
2024-05-09T18:10:42.691Z,0.60
2024-05-09T18:13:12.507Z,0.50
2024-05-09T18:15:41.108Z,0.70
2024-05-09T18:18:10.575Z,0.50
2024-05-09T18:20:43.779Z,1.00
2024-05-09T18:23:16.495Z,0.80
2024-05-09T18:25:46.878Z,0.70
2024-05-09T18:28:15.645Z,0.90
2024-05-09T18:30:44.234Z,0.80
2024-05-09T18:33:12.430Z,1.10
2024-05-09T18:35:44.486Z,1.60
2024-05-09T18:38:12.761Z,1.70
2024-05-09T18:40:42.985Z,0.80
2024-05-09T18:43:13.170Z,1.20
2024-05-09T18:45:40.998Z,1.70
2024-05-09T18:48:09.893Z,1.10
2024-05-09T18:50:40.627Z,0.80
2024-05-09T18:53:11.795Z,1.60
2024-05-09T18:55:41.922Z,1.00
2024-05-09T18:58:11.145Z,0.80
2024-05-09T19:00:41.615Z,0.80
2024-05-09T19:03:13.825Z,0.80
2024-05-09T19:05:44.710Z,1.10
2024-05-09T19:08:15.045Z,1.50
2024-05-09T19:10:45.326Z,1.10
2024-05-09T19:13:14.368Z,0.90
2024-05-09T19:15:43.812Z,1.70
2024-05-09T19:18:13.687Z,0.90
2024-05-09T19:20:42.494Z,1.10
2024-05-09T19:23:11.429Z,0.60
2024-05-09T19:25:39.409Z,0.90
2024-05-09T19:28:07.282Z,0.50
2024-05-09T19:30:40.283Z,1.80
2024-05-09T19:33:12.808Z,0.80
2024-05-09T19:35:42.631Z,0.90
2024-05-09T19:38:11.108Z,1.10
2024-05-09T19:40:38.961Z,1.10
2024-05-09T19:43:07.054Z,1.10
2024-05-09T19:45:36.095Z,0.80
2024-05-09T19:48:06.292Z,0.80
2024-05-09T19:50:41.138Z,0.50
2024-05-09T19:53:13.331Z,0.50
2024-05-09T19:55:41.892Z,0.70
2024-05-09T19:58:10.448Z,1.20
2024-05-09T20:00:41.465Z,0.90
2024-05-09T20:03:13.163Z,0.90
2024-05-09T20:05:44.686Z,1.30
2024-05-09T20:08:12.859Z,0.90
2024-05-09T20:10:40.611Z,1.10
2024-05-09T20:13:08.974Z,1.10
2024-05-09T20:15:38.511Z,1.00
2024-05-09T20:18:07.299Z,0.70
2024-05-09T20:20:39.723Z,1.40
2024-05-09T20:23:11.519Z,1.00
2024-05-09T20:25:40.244Z,0.90
2024-05-09T20:28:08.271Z,1.10
2024-05-09T20:30:36.731Z,1.20
2024-05-09T20:33:09.275Z,1.60
2024-05-09T20:35:38.101Z,1.50
2024-05-09T20:38:06.006Z,1.30
2024-05-09T20:40:37.719Z,1.30
2024-05-09T20:43:09.252Z,1.30
2024-05-09T20:45:37.625Z,1.10
2024-05-09T20:48:06.469Z,1.70
2024-05-09T20:50:39.423Z,5.10
2024-05-09T20:53:11.995Z,4.20
2024-05-09T20:55:40.454Z,4.10
2024-05-09T20:58:09.236Z,6.40
2024-05-09T21:00:40.962Z,5.70
2024-05-09T21:03:12.840Z,6.00
2024-05-09T21:05:41.415Z,5.40
2024-05-09T21:08:09.790Z,5.90
2024-05-09T21:10:37.943Z,6.10
2024-05-09T21:13:06.715Z,5.30
2024-05-09T21:15:35.904Z,4.40
2024-05-09T21:18:04.667Z,3.20
2024-05-09T21:20:34.591Z,3.00
2024-05-09T21:23:03.439Z,3.10
2024-05-09T21:25:31.997Z,2.70
2024-05-09T21:28:00.810Z,2.50
2024-05-09T21:30:38.497Z,1.90
2024-05-09T21:33:14.682Z,1.90
2024-05-09T21:35:44.408Z,2.20
2024-05-09T21:38:14.484Z,1.60
2024-05-09T21:40:43.531Z,2.10
2024-05-09T21:43:11.506Z,1.90
2024-05-09T21:45:39.413Z,2.00
2024-05-09T21:48:07.713Z,6.00
2024-05-09T21:50:40.081Z,7.70
2024-05-09T21:53:11.913Z,11.50
2024-05-09T21:55:40.324Z,11.60
2024-05-09T21:58:08.172Z,10.00
2024-05-09T22:00:39.403Z,7.80
2024-05-09T22:03:08.413Z,5.40
2024-05-09T22:05:39.001Z,4.10
2024-05-09T22:08:07.376Z,4.20
2024-05-09T22:10:36.599Z,3.40
2024-05-09T22:13:06.478Z,3.20
2024-05-09T22:15:37.200Z,2.80
2024-05-09T22:18:07.614Z,2.80
2024-05-09T22:20:38.661Z,2.40
2024-05-09T22:23:08.583Z,2.30
2024-05-09T22:25:38.511Z,2.70
2024-05-09T22:28:07.297Z,1.90
2024-05-09T22:30:38.595Z,2.40
2024-05-09T22:33:10.364Z,2.20
2024-05-09T22:35:40.595Z,2.00
2024-05-09T22:38:08.917Z,1.30
2024-05-09T22:40:45.506Z,1.60
2024-05-09T22:43:18.999Z,1.90
2024-05-09T22:45:47.590Z,2.10
2024-05-09T22:48:15.698Z,2.40
2024-05-09T22:50:43.967Z,2.40
2024-05-09T22:53:11.711Z,1.90
2024-05-09T22:55:39.462Z,1.70
2024-05-09T22:58:07.571Z,2.30
2024-05-09T23:00:35.610Z,2.30
2024-05-09T23:03:04.010Z,2.40
2024-05-09T23:05:32.519Z,2.70
2024-05-09T23:08:02.637Z,2.10
2024-05-09T23:10:35.947Z,2.10
2024-05-09T23:13:07.567Z,2.40
2024-05-09T23:15:39.908Z,2.50
2024-05-09T23:18:07.960Z,2.80
2024-05-09T23:20:38.969Z,3.00
2024-05-09T23:23:10.250Z,3.30
2024-05-09T23:25:43.510Z,3.20
2024-05-09T23:28:11.789Z,3.50
2024-05-09T23:30:41.214Z,3.50
2024-05-09T23:33:12.218Z,3.20
2024-05-09T23:35:44.378Z,3.20
2024-05-09T23:38:12.784Z,3.50
2024-05-09T23:40:41.905Z,3.30
2024-05-09T23:43:11.612Z,3.20
2024-05-09T23:45:40.482Z,3.20
2024-05-09T23:48:08.782Z,2.80
2024-05-09T23:50:38.775Z,3.20
2024-05-09T23:53:09.512Z,2.70
2024-05-09T23:55:38.576Z,3.30
2024-05-09T23:58:07.534Z,2.90
